createdAt,value
2023-04-01T00:01:17.714Z,11.20
2023-04-01T00:03:46.788Z,11.20
2023-04-01T00:06:16.845Z,11.10
2023-04-01T00:08:45.522Z,11.20
2023-04-01T00:11:14.347Z,11.20
2023-04-01T00:13:43.085Z,11.20
2023-04-01T00:16:21.180Z,11.10
2023-04-01T00:18:52.794Z,11.20
2023-04-01T00:21:23.065Z,11.20
2023-04-01T00:23:52.329Z,11.10
2023-04-01T00:26:23.750Z,11.20
2023-04-01T00:28:52.680Z,11.20
2023-04-01T00:31:21.711Z,11.20
2023-04-01T00:33:52.865Z,11.10
2023-04-01T00:36:24.369Z,11.10
2023-04-01T00:38:53.018Z,11.10
2023-04-01T00:41:22.752Z,11.10
2023-04-01T00:43:53.171Z,11.10
2023-04-01T00:46:21.914Z,11.10
2023-04-01T00:48:56.186Z,11.10
2023-04-01T00:51:28.106Z,11.10
2023-04-01T00:53:59.357Z,11.10
2023-04-01T00:56:32.401Z,11.10
2023-04-01T00:59:03.854Z,11.10
2023-04-01T01:01:33.371Z,11.10
2023-04-01T01:04:03.746Z,11.10
2023-04-01T01:06:47.150Z,11.10
2023-04-01T01:09:32.909Z,11.10
2023-04-01T01:12:09.089Z,11.10
2023-04-01T01:14:51.248Z,11.10
2023-04-01T01:17:26.734Z,11.10
2023-04-01T01:20:26.321Z,11.10
2023-04-01T01:23:18.641Z,11.10
2023-04-01T01:25:53.392Z,11.10
2023-04-01T01:28:39.490Z,11.10
2023-04-01T01:31:16.883Z,11.10
2023-04-01T01:33:59.067Z,11.10
2023-04-01T01:36:35.788Z,11.10
2023-04-01T01:39:06.001Z,11.10
2023-04-01T01:41:39.200Z,11.20
2023-04-01T01:44:10.757Z,11.10
2023-04-01T01:46:41.867Z,11.10
2023-04-01T01:49:15.583Z,11.10
2023-04-01T01:51:45.571Z,11.10
2023-04-01T01:54:15.620Z,11.10
2023-04-01T01:56:47.045Z,11.10
2023-04-01T01:59:17.729Z,11.10
2023-04-01T02:01:51.791Z,11.10
2023-04-01T02:04:21.438Z,11.10
2023-04-01T02:06:58.745Z,11.10
2023-04-01T02:09:30.509Z,11.20
2023-04-01T02:12:01.618Z,11.20
2023-04-01T02:14:37.437Z,11.20
2023-04-01T02:17:11.277Z,11.20
2023-04-01T02:19:45.906Z,11.10
2023-04-01T02:22:19.322Z,11.10
2023-04-01T02:24:48.356Z,11.10
2023-04-01T02:27:17.067Z,11.10
2023-04-01T02:29:45.654Z,11.10
2023-04-01T02:32:16.888Z,11.10
2023-04-01T02:34:46.207Z,11.10
2023-04-01T02:37:17.506Z,11.10
2023-04-01T02:39:46.474Z,11.10
2023-04-01T02:42:16.245Z,11.10
2023-04-01T02:44:44.794Z,11.00
2023-04-01T02:47:13.360Z,11.10
2023-04-01T02:49:42.796Z,11.10
2023-04-01T02:52:11.462Z,11.10
2023-04-01T02:54:42.768Z,11.00
2023-04-01T02:57:11.584Z,11.00
2023-04-01T02:59:40.231Z,10.80
2023-04-01T03:02:11.315Z,10.70
2023-04-01T03:04:39.860Z,10.50
2023-04-01T03:07:09.695Z,10.50
2023-04-01T03:09:38.633Z,10.40
2023-04-01T03:12:09.272Z,10.30
2023-04-01T03:14:38.778Z,10.20
2023-04-01T03:17:07.996Z,10.10
2023-04-01T03:19:36.540Z,10.00
2023-04-01T03:22:05.288Z,10.00
2023-04-01T03:24:33.913Z,9.90
2023-04-01T03:27:02.446Z,9.90
2023-04-01T03:29:32.416Z,9.80
2023-04-01T03:32:00.917Z,9.80
2023-04-01T03:34:29.395Z,9.70
2023-04-01T03:37:00.535Z,9.60
2023-04-01T03:39:30.056Z,9.50
2023-04-01T03:41:58.576Z,9.40
2023-04-01T03:44:27.423Z,9.30
2023-04-01T03:46:57.426Z,9.30
2023-04-01T03:49:26.216Z,9.20
2023-04-01T03:51:54.866Z,9.10
2023-04-01T03:54:24.399Z,9.00
2023-04-01T03:56:52.911Z,9.00
2023-04-01T03:59:21.445Z,8.90
2023-04-01T04:01:50.966Z,8.90
2023-04-01T04:04:21.138Z,8.80
2023-04-01T04:06:49.711Z,8.80
2023-04-01T04:09:19.420Z,8.70
2023-04-01T04:11:48.029Z,8.70
2023-04-01T04:14:16.691Z,8.70
2023-04-01T04:16:45.333Z,8.70
2023-04-01T04:19:13.831Z,8.70
2023-04-01T04:21:44.271Z,8.50
2023-04-01T04:24:12.830Z,8.50
2023-04-01T04:26:41.362Z,8.50
2023-04-01T04:29:10.656Z,8.40
2023-04-01T04:31:39.302Z,8.30
2023-04-01T04:34:08.512Z,8.30
2023-04-01T04:36:38.056Z,8.20
2023-04-01T04:39:08.036Z,8.20
2023-04-01T04:41:38.940Z,8.20
2023-04-01T04:44:07.790Z,8.10
2023-04-01T04:46:37.307Z,8.10
2023-04-01T04:49:06.094Z,8.10
2023-04-01T04:51:35.138Z,8.10
2023-04-01T04:54:03.772Z,8.10
2023-04-01T04:56:34.338Z,8.10
2023-04-01T04:59:02.822Z,8.10
2023-04-01T05:01:31.555Z,8.00
2023-04-01T05:04:00.122Z,8.00
2023-04-01T05:06:30.608Z,7.90
2023-04-01T05:08:59.072Z,7.90
2023-04-01T05:11:28.670Z,7.90
2023-04-01T05:13:59.690Z,7.90
2023-04-01T05:16:28.357Z,7.80
2023-04-01T05:18:57.028Z,7.80
2023-04-01T05:21:25.797Z,7.80
2023-04-01T05:23:54.449Z,7.70
2023-04-01T05:26:22.978Z,7.70
2023-04-01T05:28:51.482Z,7.70
2023-04-01T05:31:21.754Z,7.60
2023-04-01T05:33:50.276Z,7.60
2023-04-01T05:36:19.457Z,7.60
2023-04-01T05:38:48.366Z,7.60
2023-04-01T05:41:17.191Z,7.60
2023-04-01T05:43:45.824Z,7.60
2023-04-01T05:46:14.377Z,7.70
2023-04-01T05:48:44.372Z,7.60
2023-04-01T05:51:15.850Z,7.60
2023-04-01T05:53:45.629Z,7.60
2023-04-01T05:56:14.261Z,7.60
2023-04-01T05:58:42.923Z,7.60
2023-04-01T06:01:16.295Z,7.60
2023-04-01T06:03:47.129Z,7.70
2023-04-01T06:06:17.689Z,7.70
2023-04-01T06:08:47.510Z,7.60
2023-04-01T06:11:27.867Z,7.60
2023-04-01T06:14:12.630Z,7.50
2023-04-01T06:17:04.428Z,7.50
2023-04-01T06:19:44.438Z,7.50
2023-04-01T06:22:39.841Z,7.50
2023-04-01T06:25:40.929Z,7.50
2023-04-01T06:28:51.192Z,7.50
2023-04-01T06:31:35.508Z,7.40
2023-04-01T06:34:20.082Z,7.40
2023-04-01T06:37:24.746Z,7.40
2023-04-01T06:40:22.010Z,7.50
2023-04-01T06:43:03.011Z,7.40
2023-04-01T06:45:42.806Z,7.40
2023-04-01T06:48:35.999Z,7.50
2023-04-01T06:51:18.233Z,7.50
2023-04-01T06:53:56.720Z,7.40
2023-04-01T06:56:29.381Z,7.40
2023-04-01T06:59:01.316Z,7.40
2023-04-01T07:01:35.280Z,7.40
2023-04-01T07:04:09.327Z,7.50
2023-04-01T07:06:40.361Z,7.40
2023-04-01T07:09:14.658Z,7.50
2023-04-01T07:11:44.348Z,7.50
2023-04-01T07:14:22.136Z,7.50
2023-04-01T07:16:58.316Z,7.60
2023-04-01T07:19:33.780Z,7.60
2023-04-01T07:22:06.999Z,7.60
2023-04-01T07:24:40.118Z,7.60
2023-04-01T07:27:12.375Z,7.50
2023-04-01T07:29:41.808Z,7.60
2023-04-01T07:32:28.209Z,7.50
2023-04-01T07:35:18.134Z,7.50
2023-04-01T07:37:59.691Z,7.50
2023-04-01T07:40:40.359Z,7.60
2023-04-01T07:43:25.326Z,7.50
2023-04-01T07:46:05.702Z,7.50
2023-04-01T07:48:41.110Z,7.50
2023-04-01T07:51:17.441Z,7.50
2023-04-01T07:53:52.491Z,7.60
2023-04-01T07:56:28.971Z,7.50
2023-04-01T07:59:03.938Z,7.60
2023-04-01T08:01:41.630Z,7.60
2023-04-01T08:04:30.563Z,7.60
2023-04-01T08:07:06.627Z,7.60
2023-04-01T08:09:46.114Z,7.70
2023-04-01T08:12:30.614Z,7.70
2023-04-01T08:15:11.883Z,7.70
2023-04-01T08:17:49.760Z,7.70
2023-04-01T08:20:29.630Z,7.60
2023-04-01T08:23:03.296Z,7.60
2023-04-01T08:25:33.305Z,7.70
2023-04-01T08:28:07.857Z,7.70
2023-04-01T08:30:44.275Z,7.80
2023-04-01T08:33:18.318Z,7.90
2023-04-01T08:35:52.767Z,7.80
2023-04-01T08:38:26.188Z,7.80
2023-04-01T08:41:15.535Z,7.80
2023-04-01T08:44:13.587Z,7.80
2023-04-01T08:47:07.970Z,7.80
2023-04-01T08:50:03.872Z,7.80
2023-04-01T08:52:50.667Z,7.80
2023-04-01T08:55:38.768Z,7.90
2023-04-01T08:58:48.301Z,7.90
2023-04-01T09:01:28.297Z,8.00
2023-04-01T09:04:28.239Z,8.00
2023-04-01T09:07:18.052Z,8.00
2023-04-01T09:10:04.746Z,8.10
2023-04-01T09:12:58.658Z,8.20
2023-04-01T09:15:44.458Z,8.20
2023-04-01T09:18:34.271Z,8.10
2023-04-01T09:21:27.373Z,8.10
2023-04-01T09:24:36.876Z,8.20
2023-04-01T09:27:08.148Z,8.20
2023-04-01T09:29:56.422Z,8.20
2023-04-01T09:33:04.228Z,8.30
2023-04-01T09:35:44.672Z,8.30
2023-04-01T09:38:24.750Z,8.20
2023-04-01T09:40:59.275Z,8.20
2023-04-01T09:43:39.537Z,8.30
2023-04-01T09:46:21.306Z,8.10
2023-04-01T09:49:17.285Z,8.20
2023-04-01T09:51:56.569Z,8.20
2023-04-01T09:54:38.074Z,8.20
2023-04-01T09:57:25.580Z,8.30
2023-04-01T10:00:40.535Z,8.50
2023-04-01T10:03:38.982Z,8.60
2023-04-01T10:06:55.417Z,8.60
2023-04-01T10:10:10.540Z,8.50
2023-04-01T10:13:11.135Z,8.40
2023-04-01T10:16:20.102Z,8.50
2023-04-01T10:19:19.521Z,8.60
2023-04-01T10:22:19.901Z,8.60
2023-04-01T10:25:25.846Z,8.60
2023-04-01T10:28:33.132Z,8.70
2023-04-01T10:31:26.541Z,8.60
2023-04-01T10:34:08.161Z,8.60
2023-04-01T10:36:55.519Z,8.50
2023-04-01T10:40:02.989Z,8.60
2023-04-01T10:42:55.147Z,8.40
2023-04-01T10:46:01.865Z,8.30
2023-04-01T10:49:10.337Z,8.10
2023-04-01T10:52:07.987Z,8.20
2023-04-01T10:54:48.911Z,8.20
2023-04-01T10:57:43.557Z,8.20
2023-04-01T11:00:30.951Z,8.20
2023-04-01T11:03:29.298Z,8.20
2023-04-01T11:06:31.629Z,8.30
2023-04-01T11:09:38.169Z,8.20
2023-04-01T11:12:52.956Z,8.10
2023-04-01T11:16:06.862Z,8.10
2023-04-01T11:19:20.331Z,8.10
2023-04-01T11:22:10.687Z,7.90
2023-04-01T11:24:56.912Z,7.90
2023-04-01T11:27:43.070Z,8.00
2023-04-01T11:30:27.307Z,8.10
2023-04-01T11:33:03.438Z,8.10
2023-04-01T11:36:03.095Z,8.00
2023-04-01T11:38:59.811Z,7.80
2023-04-01T11:41:44.391Z,7.80
2023-04-01T11:44:20.318Z,7.70
2023-04-01T11:47:13.122Z,7.70
2023-04-01T11:49:59.669Z,7.70
2023-04-01T11:52:53.346Z,7.70
2023-04-01T11:55:42.107Z,7.70
2023-04-01T11:58:45.078Z,7.80
2023-04-01T12:01:36.350Z,7.80
2023-04-01T12:04:59.381Z,7.60
2023-04-01T12:07:57.561Z,7.60
2023-04-01T12:10:39.339Z,7.70
2023-04-01T12:13:23.269Z,7.70
2023-04-01T12:16:14.184Z,7.60
2023-04-01T12:19:07.218Z,7.60
2023-04-01T12:21:39.575Z,7.50
2023-04-01T12:24:48.370Z,7.50
2023-04-01T12:27:44.375Z,7.50
2023-04-01T12:30:45.731Z,7.50
2023-04-01T12:33:49.321Z,7.30
2023-04-01T12:36:51.659Z,7.20
2023-04-01T12:40:16.381Z,7.20
2023-04-01T12:43:16.020Z,7.00
2023-04-01T12:45:57.765Z,7.00
2023-04-01T12:48:55.009Z,7.00
2023-04-01T12:52:03.347Z,6.90
2023-04-01T12:55:04.443Z,6.90
2023-04-01T12:58:11.345Z,6.90
2023-04-01T13:01:05.715Z,6.90
2023-04-01T13:03:55.473Z,6.80
2023-04-01T13:06:52.689Z,6.90
2023-04-01T13:10:00.544Z,6.80
2023-04-01T13:12:56.072Z,6.70
2023-04-01T13:15:30.806Z,6.70
2023-04-01T13:18:14.539Z,6.70
2023-04-01T13:21:13.705Z,6.80
2023-04-01T13:24:21.855Z,6.80
2023-04-01T13:27:09.070Z,6.80
2023-04-01T13:29:42.331Z,6.80
2023-04-01T13:32:36.868Z,6.80
2023-04-01T13:35:38.833Z,6.80
2023-04-01T13:38:35.375Z,6.70
2023-04-01T13:41:38.617Z,6.70
2023-04-01T13:44:16.312Z,6.70
2023-04-01T13:47:03.917Z,6.70
2023-04-01T13:49:59.313Z,6.80
2023-04-01T13:53:02.607Z,6.80
2023-04-01T13:55:48.119Z,6.60
2023-04-01T13:59:12.752Z,6.70
2023-04-01T14:01:56.252Z,6.80
2023-04-01T14:04:53.157Z,6.80
2023-04-01T14:07:58.220Z,6.80
2023-04-01T14:11:09.378Z,6.80
2023-04-01T14:13:51.439Z,6.80
2023-04-01T14:16:58.236Z,6.70
2023-04-01T14:19:44.426Z,6.70
2023-04-01T14:22:23.509Z,6.80
2023-04-01T14:25:23.829Z,6.90
2023-04-01T14:28:10.516Z,6.80
2023-04-01T14:30:53.757Z,6.80
2023-04-01T14:33:40.465Z,6.70
2023-04-01T14:36:35.502Z,6.70
2023-04-01T14:39:31.877Z,6.70
2023-04-01T14:42:22.398Z,6.70
2023-04-01T14:45:09.635Z,6.70
2023-04-01T14:47:49.672Z,6.60
2023-04-01T14:50:23.171Z,6.60
2023-04-01T14:53:01.531Z,6.60
2023-04-01T14:55:36.219Z,6.50
2023-04-01T14:58:13.817Z,6.60
2023-04-01T15:00:51.443Z,6.60
2023-04-01T15:03:28.578Z,6.60
2023-04-01T15:06:13.594Z,6.60
2023-04-01T15:08:54.016Z,6.60
2023-04-01T15:11:37.638Z,6.60
2023-04-01T15:14:39.768Z,6.60
2023-04-01T15:17:38.077Z,6.70
2023-04-01T15:20:39.192Z,6.60
2023-04-01T15:23:23.990Z,6.60
2023-04-01T15:26:23.334Z,6.50
2023-04-01T15:29:03.785Z,6.40
2023-04-01T15:31:39.676Z,6.30
2023-04-01T15:34:23.550Z,6.30
2023-04-01T15:36:59.733Z,6.30
2023-04-01T15:39:47.052Z,6.30
2023-04-01T15:42:35.787Z,6.40
2023-04-01T15:45:20.705Z,6.40
2023-04-01T15:48:01.324Z,6.30
2023-04-01T15:50:57.396Z,6.30
2023-04-01T15:53:39.445Z,6.30
2023-04-01T15:56:29.141Z,6.30
2023-04-01T15:59:10.147Z,6.20
2023-04-01T16:01:49.411Z,6.10
2023-04-01T16:04:41.180Z,6.10
2023-04-01T16:07:32.064Z,6.10
2023-04-01T16:10:34.851Z,6.20
2023-04-01T16:13:22.075Z,6.20
2023-04-01T16:16:00.556Z,6.10
2023-04-01T16:18:44.539Z,6.00
2023-04-01T16:21:27.235Z,6.00
2023-04-01T16:24:00.873Z,5.90
2023-04-01T16:26:37.846Z,5.90
2023-04-01T16:29:13.873Z,5.90
2023-04-01T16:31:50.479Z,5.90
2023-04-01T16:34:22.843Z,5.90
2023-04-01T16:36:56.585Z,6.00
2023-04-01T16:39:42.060Z,6.00
2023-04-01T16:42:29.787Z,5.90
2023-04-01T16:45:03.424Z,5.80
2023-04-01T16:47:34.659Z,5.80
2023-04-01T16:50:15.943Z,5.70
2023-04-01T16:53:01.163Z,5.60
2023-04-01T16:55:48.502Z,5.60
2023-04-01T16:58:26.014Z,5.60
2023-04-01T17:01:03.248Z,5.60
2023-04-01T17:03:37.440Z,5.60
2023-04-01T17:06:18.705Z,5.50
2023-04-01T17:09:13.831Z,5.40
2023-04-01T17:11:48.430Z,5.40
2023-04-01T17:14:26.491Z,5.40
2023-04-01T17:17:16.997Z,5.40
2023-04-01T17:19:59.529Z,5.40
2023-04-01T17:22:38.543Z,5.40
2023-04-01T17:25:44.071Z,5.40
2023-04-01T17:28:31.690Z,5.40
2023-04-01T17:31:09.839Z,5.30
2023-04-01T17:34:04.556Z,5.40
2023-04-01T17:36:47.367Z,5.30
2023-04-01T17:39:39.041Z,5.30
2023-04-01T17:42:11.947Z,5.30
2023-04-01T17:44:57.823Z,5.20
2023-04-01T17:47:43.684Z,5.20
2023-04-01T17:50:38.634Z,5.10
2023-04-01T17:53:21.151Z,5.00
2023-04-01T17:56:02.072Z,5.00
2023-04-01T17:58:38.355Z,4.90
2023-04-01T18:01:22.670Z,4.80
2023-04-01T18:04:03.809Z,4.80
2023-04-01T18:06:39.844Z,4.70
2023-04-01T18:09:24.647Z,4.60
2023-04-01T18:12:03.472Z,4.50
2023-04-01T18:14:54.721Z,4.50
2023-04-01T18:17:44.092Z,4.40
2023-04-01T18:20:37.395Z,4.30
2023-04-01T18:23:15.621Z,4.30
2023-04-01T18:25:49.335Z,4.20
2023-04-01T18:28:23.704Z,4.20
2023-04-01T18:30:59.375Z,4.20
2023-04-01T18:33:38.802Z,4.10
2023-04-01T18:36:17.998Z,4.10
2023-04-01T18:38:52.599Z,4.10
2023-04-01T18:41:29.294Z,4.10
2023-04-01T18:44:08.402Z,4.00
2023-04-01T18:46:44.069Z,4.00
2023-04-01T18:49:23.660Z,4.00
2023-04-01T18:51:58.388Z,4.00
2023-04-01T18:54:33.415Z,3.90
2023-04-01T18:57:06.554Z,3.90
2023-04-01T18:59:42.000Z,3.80
2023-04-01T19:02:22.842Z,3.80
2023-04-01T19:05:05.228Z,3.80
2023-04-01T19:07:50.203Z,3.80
2023-04-01T19:10:28.466Z,3.80
2023-04-01T19:13:08.347Z,3.70
2023-04-01T19:15:44.562Z,3.70
2023-04-01T19:18:37.066Z,3.70
2023-04-01T19:21:17.090Z,3.60
2023-04-01T19:24:19.824Z,3.60
2023-04-01T19:26:55.671Z,3.60
2023-04-01T19:29:40.414Z,3.60
2023-04-01T19:32:19.420Z,3.60
2023-04-01T19:34:59.750Z,3.50
2023-04-01T19:37:39.791Z,3.50
2023-04-01T19:40:24.825Z,3.50
2023-04-01T19:43:03.773Z,3.50
2023-04-01T19:45:41.499Z,3.50
2023-04-01T19:48:27.501Z,3.50
2023-04-01T19:51:01.264Z,3.40
2023-04-01T19:53:40.007Z,3.40
2023-04-01T19:56:21.505Z,3.40
2023-04-01T19:58:56.300Z,3.40
2023-04-01T20:01:41.881Z,3.40
2023-04-01T20:04:18.142Z,3.30
2023-04-01T20:06:55.284Z,3.30
2023-04-01T20:09:53.713Z,3.30
2023-04-01T20:12:35.755Z,3.30
2023-04-01T20:15:30.114Z,3.20
2023-04-01T20:18:02.541Z,3.30
2023-04-01T20:20:33.246Z,3.30
2023-04-01T20:23:12.180Z,3.20
2023-04-01T20:25:51.299Z,3.30
2023-04-01T20:28:28.838Z,3.20
2023-04-01T20:31:13.359Z,3.20
2023-04-01T20:34:14.620Z,3.10
2023-04-01T20:36:58.720Z,3.10
2023-04-01T20:39:50.673Z,3.10
2023-04-01T20:42:31.895Z,3.10
2023-04-01T20:45:19.518Z,3.10
2023-04-01T20:48:05.355Z,3.10
2023-04-01T20:50:41.680Z,3.10
2023-04-01T20:53:19.376Z,3.10
2023-04-01T20:56:24.346Z,3.10
2023-04-01T20:59:04.966Z,3.10
2023-04-01T21:01:41.788Z,3.00
2023-04-01T21:04:29.848Z,3.00
2023-04-01T21:07:11.437Z,3.00
2023-04-01T21:09:59.274Z,3.00
2023-04-01T21:12:36.737Z,3.00
2023-04-01T21:15:21.815Z,3.00
2023-04-01T21:18:01.330Z,2.90
2023-04-01T21:20:50.645Z,2.90
2023-04-01T21:23:38.063Z,2.90
2023-04-01T21:26:22.172Z,2.80
2023-04-01T21:29:13.776Z,2.80
2023-04-01T21:31:55.900Z,2.80
2023-04-01T21:34:46.373Z,2.80
2023-04-01T21:37:33.804Z,2.80
2023-04-01T21:40:29.014Z,2.80
2023-04-01T21:43:03.989Z,2.80
2023-04-01T21:46:00.994Z,2.80
2023-04-01T21:48:50.081Z,2.80
2023-04-01T21:51:55.955Z,2.70
2023-04-01T21:55:09.493Z,2.70
2023-04-01T21:58:11.658Z,2.70
2023-04-01T22:00:42.990Z,2.70
2023-04-01T22:03:47.306Z,2.70
2023-04-01T22:06:26.070Z,2.70
2023-04-01T22:09:12.777Z,2.70
2023-04-01T22:11:55.542Z,2.70
2023-04-01T22:14:32.629Z,2.70
2023-04-01T22:17:04.719Z,2.60
2023-04-01T22:19:44.057Z,2.60
2023-04-01T22:22:21.891Z,2.60
2023-04-01T22:25:02.041Z,2.60
2023-04-01T22:27:37.326Z,2.60
2023-04-01T22:30:19.715Z,2.60
2023-04-01T22:32:51.132Z,2.60
2023-04-01T22:35:36.215Z,2.60
2023-04-01T22:38:20.157Z,2.50
2023-04-01T22:40:54.767Z,2.60
2023-04-01T22:43:30.301Z,2.50
2023-04-01T22:46:29.049Z,2.40
2023-04-01T22:49:02.909Z,2.50
2023-04-01T22:51:46.170Z,2.50
2023-04-01T22:54:23.069Z,2.40
2023-04-01T22:56:55.881Z,2.40
2023-04-01T22:59:26.539Z,2.40
2023-04-01T23:01:59.194Z,2.40
2023-04-01T23:04:33.560Z,2.40
2023-04-01T23:07:17.595Z,2.30
2023-04-01T23:09:46.703Z,2.40
2023-04-01T23:12:18.314Z,2.30
2023-04-01T23:14:51.707Z,2.30
2023-04-01T23:17:33.496Z,2.30
2023-04-01T23:20:11.899Z,2.30
2023-04-01T23:22:49.812Z,2.30
2023-04-01T23:25:32.259Z,2.40
2023-04-01T23:28:23.505Z,2.30
2023-04-01T23:30:53.362Z,2.30
2023-04-01T23:33:29.434Z,2.30
2023-04-01T23:36:06.412Z,2.30
2023-04-01T23:38:38.852Z,2.40
2023-04-01T23:41:09.348Z,2.40
2023-04-01T23:43:42.458Z,2.40
2023-04-01T23:46:12.108Z,2.40
2023-04-01T23:48:43.279Z,2.40
2023-04-01T23:51:18.949Z,2.30
2023-04-01T23:53:57.828Z,2.30
2023-04-01T23:56:37.959Z,2.30
2023-04-01T23:59:06.682Z,2.20
